createdAt,value
2023-08-13T00:00:09.074Z,19.84
2023-08-13T00:02:37.107Z,19.69
2023-08-13T00:05:06.061Z,19.46
2023-08-13T00:07:35.134Z,19.62
2023-08-13T00:10:03.512Z,19.70
2023-08-13T00:12:31.116Z,20.07
2023-08-13T00:14:58.726Z,19.70
2023-08-13T00:17:27.445Z,19.84
2023-08-13T00:19:55.172Z,19.73
2023-08-13T00:22:23.424Z,19.24
2023-08-13T00:24:55.260Z,19.55
2023-08-13T00:27:24.341Z,19.66
2023-08-13T00:29:52.047Z,19.65
2023-08-13T00:32:19.724Z,19.38
2023-08-13T00:34:47.526Z,19.47
2023-08-13T00:37:15.275Z,19.69
2023-08-13T00:39:42.970Z,19.69
2023-08-13T00:42:12.369Z,19.57
2023-08-13T00:44:40.397Z,19.75
2023-08-13T00:47:09.856Z,19.71
2023-08-13T00:49:37.629Z,19.56
2023-08-13T00:52:05.494Z,19.53
2023-08-13T00:54:33.242Z,19.68
2023-08-13T00:57:00.884Z,19.64
2023-08-13T00:59:29.989Z,19.15
2023-08-13T01:01:58.046Z,19.19
2023-08-13T01:04:25.785Z,18.92
2023-08-13T01:06:57.537Z,19.12
2023-08-13T01:09:27.443Z,19.05
2023-08-13T01:11:55.498Z,19.12
2023-08-13T01:14:25.829Z,18.87
2023-08-13T01:16:54.940Z,19.26
2023-08-13T01:19:22.875Z,19.26
2023-08-13T01:21:50.699Z,19.33
2023-08-13T01:24:19.681Z,19.47
2023-08-13T01:26:49.679Z,19.50
2023-08-13T01:29:18.813Z,19.49
2023-08-13T01:31:47.405Z,19.43
2023-08-13T01:34:16.431Z,19.46
2023-08-13T01:36:44.296Z,19.53
2023-08-13T01:39:12.780Z,19.42
2023-08-13T01:41:46.830Z,18.73
2023-08-13T01:44:15.350Z,18.75
2023-08-13T01:46:43.058Z,18.88
2023-08-13T01:49:10.750Z,19.10
2023-08-13T01:51:38.396Z,19.19
2023-08-13T01:54:06.617Z,19.20
2023-08-13T01:56:34.338Z,19.30
2023-08-13T01:59:03.492Z,19.44
2023-08-13T02:01:31.354Z,19.50
2023-08-13T02:03:59.169Z,19.41
2023-08-13T02:06:26.887Z,19.07
2023-08-13T02:08:54.614Z,19.23
2023-08-13T02:11:22.348Z,19.45
2023-08-13T02:13:50.783Z,19.65
2023-08-13T02:16:19.892Z,19.63
2023-08-13T02:18:47.614Z,20.02
2023-08-13T02:21:19.904Z,20.07
2023-08-13T02:23:47.578Z,19.91
2023-08-13T02:26:15.887Z,19.89
2023-08-13T02:28:46.647Z,19.91
2023-08-13T02:31:14.383Z,19.79
2023-08-13T02:33:44.142Z,19.75
2023-08-13T02:36:11.830Z,19.76
2023-08-13T02:38:39.542Z,19.94
2023-08-13T02:41:07.268Z,19.98
2023-08-13T02:43:35.418Z,20.06
2023-08-13T02:46:03.195Z,20.03
2023-08-13T02:48:30.918Z,20.03
2023-08-13T02:51:00.150Z,19.97
2023-08-13T02:53:27.800Z,20.07
2023-08-13T02:55:55.468Z,20.03
2023-08-13T02:58:23.300Z,20.05
2023-08-13T03:00:51.153Z,20.07
2023-08-13T03:03:18.993Z,20.11
2023-08-13T03:05:46.777Z,20.16
2023-08-13T03:08:15.760Z,20.01
2023-08-13T03:10:43.595Z,19.96
2023-08-13T03:13:11.333Z,19.99
2023-08-13T03:15:39.208Z,19.94
2023-08-13T03:18:08.183Z,19.93
2023-08-13T03:20:39.285Z,19.96
2023-08-13T03:23:08.270Z,19.98
2023-08-13T03:25:37.884Z,19.95
2023-08-13T03:28:06.685Z,20.00
2023-08-13T03:30:34.389Z,19.93
2023-08-13T03:33:02.092Z,19.95
2023-08-13T03:35:30.030Z,19.95
2023-08-13T03:37:57.829Z,19.65
2023-08-13T03:40:26.589Z,19.58
2023-08-13T03:42:55.612Z,19.50
2023-08-13T03:45:23.371Z,19.72
2023-08-13T03:47:51.172Z,19.88
2023-08-13T03:50:19.186Z,19.46
2023-08-13T03:52:46.946Z,19.14
2023-08-13T03:55:15.566Z,19.44
2023-08-13T03:57:43.282Z,19.58
2023-08-13T04:00:12.900Z,19.51
2023-08-13T04:02:45.041Z,19.65
2023-08-13T04:05:12.881Z,19.67
2023-08-13T04:07:40.735Z,19.48
2023-08-13T04:10:09.519Z,19.68
2023-08-13T04:12:37.186Z,19.81
2023-08-13T04:15:05.102Z,19.81
2023-08-13T04:17:34.852Z,19.75
2023-08-13T04:20:03.282Z,19.39
2023-08-13T04:22:30.900Z,19.31
2023-08-13T04:24:59.230Z,19.61
2023-08-13T04:27:27.108Z,19.64
2023-08-13T04:29:55.128Z,19.69
2023-08-13T04:32:22.751Z,19.83
2023-08-13T04:34:51.896Z,19.92
2023-08-13T04:37:19.956Z,19.74
2023-08-13T04:39:48.105Z,19.78
2023-08-13T04:42:15.969Z,19.77
2023-08-13T04:44:44.046Z,19.86
2023-08-13T04:47:11.797Z,19.84
2023-08-13T04:49:40.814Z,19.82
2023-08-13T04:52:09.979Z,19.93
2023-08-13T04:54:37.991Z,19.57
2023-08-13T04:57:06.008Z,19.77
2023-08-13T04:59:34.072Z,20.00
2023-08-13T05:02:02.492Z,20.22
2023-08-13T05:04:31.059Z,20.21
2023-08-13T05:06:59.012Z,20.28
2023-08-13T05:09:28.703Z,20.31
2023-08-13T05:11:58.360Z,20.33
2023-08-13T05:14:26.373Z,20.45
2023-08-13T05:16:56.075Z,20.58
2023-08-13T05:19:24.923Z,20.68
2023-08-13T05:21:54.383Z,20.58
2023-08-13T05:24:24.924Z,20.41
2023-08-13T05:26:54.310Z,20.53
2023-08-13T05:29:22.168Z,20.79
2023-08-13T05:31:54.812Z,20.66
2023-08-13T05:34:25.104Z,20.63
2023-08-13T05:36:54.276Z,20.37
2023-08-13T05:39:25.079Z,20.32
2023-08-13T05:41:56.143Z,20.32
2023-08-13T05:44:23.987Z,20.45
2023-08-13T05:46:52.227Z,20.57
2023-08-13T05:49:20.058Z,20.51
2023-08-13T05:51:49.412Z,20.48
2023-08-13T05:54:17.537Z,20.50
2023-08-13T05:56:45.234Z,20.59
2023-08-13T05:59:14.368Z,20.49
2023-08-13T06:01:42.260Z,20.70
2023-08-13T06:04:09.937Z,20.61
2023-08-13T06:06:37.875Z,20.64
2023-08-13T06:09:06.776Z,20.95
2023-08-13T06:11:34.555Z,20.89
2023-08-13T06:14:02.503Z,20.79
2023-08-13T06:16:32.256Z,21.00
2023-08-13T06:19:00.552Z,20.97
2023-08-13T06:21:33.322Z,20.99
2023-08-13T06:24:01.034Z,20.95
2023-08-13T06:26:28.851Z,20.78
2023-08-13T06:28:56.746Z,20.84
2023-08-13T06:31:41.508Z,20.44
2023-08-13T06:34:11.692Z,20.72
2023-08-13T06:36:40.551Z,20.68
2023-08-13T06:39:08.242Z,20.84
2023-08-13T06:41:36.011Z,20.78
2023-08-13T06:44:07.118Z,20.71
2023-08-13T06:46:37.949Z,20.56
2023-08-13T06:49:05.805Z,20.52
2023-08-13T06:51:34.930Z,20.61
2023-08-13T06:54:02.604Z,20.66
2023-08-13T06:56:31.449Z,20.89
2023-08-13T06:58:59.229Z,20.98
2023-08-13T07:01:26.942Z,21.15
2023-08-13T07:03:54.634Z,21.20
2023-08-13T07:06:22.526Z,21.38
2023-08-13T07:08:51.962Z,21.43
2023-08-13T07:11:19.765Z,21.28
2023-08-13T07:13:47.443Z,20.88
2023-08-13T07:16:16.315Z,21.00
2023-08-13T07:18:44.097Z,21.06
2023-08-13T07:21:12.566Z,21.04
2023-08-13T07:23:41.642Z,21.39
2023-08-13T07:26:11.075Z,21.31
2023-08-13T07:28:43.412Z,21.39
2023-08-13T07:31:11.118Z,21.43
2023-08-13T07:33:38.837Z,21.93
2023-08-13T07:36:07.101Z,22.05
2023-08-13T07:38:38.134Z,22.06
2023-08-13T07:41:10.405Z,22.09
2023-08-13T07:43:41.004Z,22.06
2023-08-13T07:46:08.874Z,22.31
2023-08-13T07:48:36.636Z,22.34
2023-08-13T07:51:04.260Z,22.38
2023-08-13T07:53:32.785Z,22.41
2023-08-13T07:56:00.528Z,22.45
2023-08-13T07:58:29.549Z,22.63
2023-08-13T08:01:02.506Z,22.28
2023-08-13T08:03:30.260Z,22.20
2023-08-13T08:05:58.017Z,22.33
2023-08-13T08:08:25.746Z,22.45
2023-08-13T08:10:53.552Z,22.17
2023-08-13T08:13:21.298Z,22.05
2023-08-13T08:15:52.518Z,22.50
2023-08-13T08:18:20.291Z,22.62
2023-08-13T08:20:48.052Z,22.71
2023-08-13T08:23:15.726Z,22.75
2023-08-13T08:25:43.519Z,23.08
2023-08-13T08:28:12.352Z,23.04
2023-08-13T08:30:41.576Z,22.80
2023-08-13T08:33:10.949Z,22.78
2023-08-13T08:35:38.672Z,22.85
2023-08-13T08:38:06.386Z,22.87
2023-08-13T08:40:34.235Z,22.69
2023-08-13T08:43:01.888Z,22.80
2023-08-13T08:45:29.829Z,22.98
2023-08-13T08:47:57.639Z,23.19
2023-08-13T08:50:27.397Z,23.06
2023-08-13T08:52:55.569Z,23.18
2023-08-13T08:55:23.412Z,23.54
2023-08-13T08:57:51.260Z,23.54
2023-08-13T09:00:18.970Z,23.66
2023-08-13T09:02:46.728Z,23.38
2023-08-13T09:05:16.046Z,23.24
2023-08-13T09:07:45.590Z,23.33
2023-08-13T09:10:13.372Z,23.77
2023-08-13T09:12:41.713Z,23.88
2023-08-13T09:15:10.295Z,23.73
2023-08-13T09:17:38.247Z,23.91
2023-08-13T09:20:11.418Z,23.79
2023-08-13T09:22:39.276Z,24.06
2023-08-13T09:25:10.839Z,24.13
2023-08-13T09:27:38.610Z,24.08
2023-08-13T09:30:09.045Z,24.10
2023-08-13T09:32:37.553Z,24.09
2023-08-13T09:35:05.549Z,23.98
2023-08-13T09:44:38.352Z,24.43
2023-08-13T09:47:07.255Z,24.08
2023-08-13T09:49:35.322Z,24.19
2023-08-13T09:52:05.616Z,24.04
2023-08-13T09:54:34.766Z,24.24
2023-08-13T09:57:53.726Z,24.45
2023-08-13T10:03:57.298Z,24.41
2023-08-13T10:06:25.143Z,24.52
2023-08-13T10:08:54.111Z,24.95
2023-08-13T10:11:23.620Z,25.01
2023-08-13T10:13:52.732Z,25.12
2023-08-13T10:16:20.577Z,24.85
2023-08-13T10:18:48.436Z,24.83
2023-08-13T10:21:16.197Z,25.37
2023-08-13T10:23:43.908Z,25.55
2023-08-13T10:26:11.579Z,25.27
2023-08-13T10:28:39.305Z,25.24
2023-08-13T10:31:32.489Z,25.37
2023-08-13T10:34:03.630Z,25.28
2023-08-13T10:36:44.178Z,25.44
2023-08-13T10:39:35.916Z,25.09
2023-08-13T10:42:06.175Z,25.22
2023-08-13T10:44:34.073Z,24.93
2023-08-13T10:47:05.228Z,24.97
2023-08-13T10:49:32.960Z,25.25
2023-08-13T10:52:03.819Z,25.25
2023-08-13T10:54:33.101Z,25.31
2023-08-13T10:57:02.898Z,25.08
2023-08-13T10:59:31.613Z,25.19
2023-08-13T11:02:13.333Z,25.59
2023-08-13T11:04:42.429Z,25.78
2023-08-13T11:07:13.947Z,25.43
2023-08-13T11:09:45.045Z,25.47
2023-08-13T11:12:14.682Z,25.30
2023-08-13T11:14:42.781Z,25.57
2023-08-13T11:17:11.904Z,25.29
2023-08-13T11:19:39.650Z,25.48
2023-08-13T11:22:09.823Z,25.73
2023-08-13T11:24:37.943Z,26.06
2023-08-13T11:27:05.717Z,26.18
2023-08-13T11:29:33.453Z,25.96
2023-08-13T11:32:01.227Z,26.07
2023-08-13T11:34:30.496Z,25.91
2023-08-13T11:36:58.493Z,25.91
2023-08-13T11:39:26.168Z,26.11
2023-08-13T11:41:53.864Z,26.25
2023-08-13T11:48:16.083Z,26.51
2023-08-13T11:50:47.876Z,26.52
2023-08-13T11:53:15.903Z,26.41
2023-08-13T11:55:45.007Z,26.54
2023-08-13T11:58:12.789Z,26.61
2023-08-13T12:00:40.446Z,26.55
2023-08-13T12:03:08.223Z,26.70
2023-08-13T12:05:36.979Z,26.83
2023-08-13T12:08:08.106Z,26.93
2023-08-13T12:10:36.137Z,26.36
2023-08-13T12:13:04.030Z,26.32
2023-08-13T12:15:39.942Z,26.55
2023-08-13T12:18:08.101Z,26.51
2023-08-13T12:20:35.891Z,26.81
2023-08-13T12:23:08.983Z,26.75
2023-08-13T12:25:37.967Z,26.51
2023-08-13T12:28:06.014Z,26.47
2023-08-13T12:30:33.635Z,26.80
2023-08-13T12:33:01.547Z,26.81
2023-08-13T12:35:32.168Z,26.60
2023-08-13T12:37:59.955Z,26.70
2023-08-13T12:40:28.828Z,26.37
2023-08-13T12:43:42.668Z,26.69
2023-08-13T12:46:15.808Z,27.05
2023-08-13T12:48:43.560Z,26.81
2023-08-13T12:51:11.616Z,26.72
2023-08-13T12:53:39.224Z,26.84
2023-08-13T12:56:06.930Z,26.72
2023-08-13T12:58:35.280Z,26.59
2023-08-13T13:01:04.188Z,26.92
2023-08-13T13:03:33.219Z,27.09
2023-08-13T13:06:01.231Z,27.06
2023-08-13T13:08:28.894Z,26.92
2023-08-13T13:10:56.612Z,27.16
2023-08-13T13:13:25.388Z,27.16
2023-08-13T13:15:53.124Z,26.94
2023-08-13T13:18:20.740Z,27.30
2023-08-13T13:20:55.885Z,27.28
2023-08-13T13:23:26.233Z,27.17
2023-08-13T13:29:53.903Z,27.32
2023-08-13T13:32:21.782Z,26.78
2023-08-13T13:34:49.437Z,26.99
2023-08-13T13:37:21.570Z,26.73
2023-08-13T13:39:49.261Z,26.90
2023-08-13T13:42:17.103Z,27.03
2023-08-13T13:44:47.648Z,27.02
2023-08-13T13:47:15.271Z,27.27
2023-08-13T13:49:43.062Z,27.27
2023-08-13T13:52:13.121Z,27.27
2023-08-13T13:54:43.234Z,27.72
2023-08-13T13:57:10.963Z,27.88
2023-08-13T13:59:38.596Z,28.13
2023-08-13T14:02:06.397Z,27.86
2023-08-13T14:04:34.333Z,27.90
2023-08-13T14:07:02.013Z,27.72
2023-08-13T14:09:29.801Z,27.57
2023-08-13T14:11:58.901Z,27.65
2023-08-13T14:14:26.556Z,27.46
2023-08-13T14:16:54.179Z,27.50
2023-08-13T14:19:21.927Z,27.44
2023-08-13T14:21:49.561Z,27.26
2023-08-13T14:24:18.250Z,27.63
2023-08-13T14:26:46.151Z,27.52
2023-08-13T14:29:15.296Z,27.34
2023-08-13T14:31:43.042Z,27.49
2023-08-13T14:34:10.688Z,27.44
2023-08-13T14:36:38.479Z,27.19
2023-08-13T14:39:06.396Z,27.34
2023-08-13T14:41:34.664Z,27.17
2023-08-13T14:44:02.479Z,27.23
2023-08-13T14:46:32.420Z,27.48
2023-08-13T14:49:00.194Z,27.06
2023-08-13T14:51:27.853Z,27.32
2023-08-13T14:53:55.894Z,27.28
2023-08-13T14:56:23.707Z,27.40
2023-08-13T14:58:51.540Z,27.38
2023-08-13T15:01:19.925Z,27.76
2023-08-13T15:03:49.069Z,27.69
2023-08-13T15:06:17.034Z,27.35
2023-08-13T15:08:45.303Z,27.48
2023-08-13T15:11:12.902Z,27.05
2023-08-13T15:13:40.873Z,26.78
2023-08-13T15:16:08.507Z,26.67
2023-08-13T15:18:36.245Z,26.67
2023-08-13T15:21:07.526Z,26.88
2023-08-13T15:23:40.280Z,27.14
2023-08-13T15:26:07.986Z,27.04
2023-08-13T15:28:37.065Z,26.84
2023-08-13T15:31:06.364Z,26.89
2023-08-13T15:33:34.087Z,26.94
2023-08-13T15:36:03.487Z,26.97
2023-08-13T15:38:32.566Z,27.05
2023-08-13T15:41:00.479Z,26.83
2023-08-13T15:43:28.427Z,26.77
2023-08-13T15:45:56.234Z,26.53
2023-08-13T15:48:24.144Z,26.62
2023-08-13T15:50:51.780Z,26.74
2023-08-13T15:53:19.599Z,26.64
2023-08-13T15:55:48.785Z,26.76
2023-08-13T15:58:16.469Z,26.68
2023-08-13T16:00:44.248Z,26.69
2023-08-13T16:03:12.546Z,26.55
2023-08-13T16:05:40.404Z,26.62
2023-08-13T16:08:09.653Z,26.53
2023-08-13T16:10:37.778Z,26.39
2023-08-13T16:13:06.809Z,26.52
2023-08-13T16:15:34.632Z,26.53
2023-08-13T16:18:04.304Z,26.60
2023-08-13T16:20:32.183Z,26.61
2023-08-13T16:23:00.375Z,26.28
2023-08-13T16:25:28.315Z,26.33
2023-08-13T16:27:58.188Z,26.46
2023-08-13T16:30:29.839Z,26.31
2023-08-13T16:32:57.778Z,26.37
2023-08-13T16:35:30.372Z,26.41
2023-08-13T16:37:59.245Z,26.22
2023-08-13T16:40:27.310Z,26.33
2023-08-13T16:43:08.109Z,26.38
2023-08-13T16:45:40.530Z,26.32
2023-08-13T16:48:08.408Z,26.44
2023-08-13T16:50:36.158Z,26.52
2023-08-13T16:53:03.983Z,26.53
2023-08-13T16:55:34.842Z,26.35
2023-08-13T16:58:02.735Z,26.39
2023-08-13T17:00:30.407Z,26.32
2023-08-13T17:03:07.003Z,26.38
2023-08-13T17:05:34.772Z,26.05
2023-08-13T17:08:02.764Z,26.05
2023-08-13T17:10:35.755Z,26.00
2023-08-13T17:13:03.669Z,25.88
2023-08-13T17:15:31.797Z,26.11
2023-08-13T17:18:01.954Z,26.32
2023-08-13T17:20:49.874Z,26.18
2023-08-13T17:23:23.305Z,25.78
2023-08-13T17:25:51.333Z,25.52
2023-08-13T17:28:19.105Z,25.35
2023-08-13T17:30:47.033Z,25.33
2023-08-13T17:33:17.539Z,25.36
2023-08-13T17:35:45.450Z,25.42
2023-08-13T17:38:13.282Z,25.16
2023-08-13T17:40:42.409Z,25.40
2023-08-13T17:43:10.018Z,25.55
2023-08-13T17:45:41.086Z,25.52
2023-08-13T17:48:09.827Z,25.48
2023-08-13T17:50:37.683Z,25.65
2023-08-13T17:53:05.525Z,25.50
2023-08-13T17:55:33.238Z,25.42
2023-08-13T17:58:02.445Z,25.37
2023-08-13T18:00:30.470Z,25.29
2023-08-13T18:02:58.452Z,25.28
2023-08-13T18:05:26.405Z,25.25
2023-08-13T18:08:04.330Z,25.14
2023-08-13T18:10:40.117Z,25.07
2023-08-13T18:13:09.419Z,24.84
2023-08-13T18:15:38.409Z,24.84
2023-08-13T18:18:07.168Z,24.70
2023-08-13T18:20:35.218Z,24.60
2023-08-13T18:23:03.101Z,24.53
2023-08-13T18:25:31.520Z,24.48
2023-08-13T18:28:02.346Z,24.30
2023-08-13T18:30:34.138Z,24.27
2023-08-13T18:33:03.621Z,23.77
2023-08-13T18:35:32.018Z,23.56
2023-08-13T18:38:01.540Z,23.77
2023-08-13T18:40:30.500Z,23.92
2023-08-13T18:43:03.946Z,23.96
2023-08-13T18:45:38.092Z,23.48
2023-08-13T18:48:08.015Z,23.32
2023-08-13T18:50:35.891Z,22.69
2023-08-13T18:53:03.882Z,22.48
2023-08-13T18:55:32.408Z,22.67
2023-08-13T18:58:02.958Z,22.83
2023-08-13T19:00:30.913Z,22.74
2023-08-13T19:03:01.276Z,22.99
2023-08-13T19:05:30.912Z,23.17
2023-08-13T19:07:59.037Z,23.32
2023-08-13T19:10:28.108Z,23.18
2023-08-13T19:12:55.926Z,23.18
2023-08-13T19:15:26.148Z,22.91
2023-08-13T19:17:53.909Z,22.64
2023-08-13T19:20:23.038Z,22.28
2023-08-13T19:22:50.911Z,22.03
2023-08-13T19:25:18.735Z,21.76
2023-08-13T19:27:46.425Z,21.75
2023-08-13T19:30:14.400Z,21.95
2023-08-13T19:32:42.202Z,22.29
2023-08-13T19:35:12.362Z,22.44
2023-08-13T19:37:44.514Z,22.50
2023-08-13T19:40:12.982Z,22.17
2023-08-13T19:42:40.770Z,22.24
2023-08-13T19:45:11.088Z,21.95
2023-08-13T19:47:38.958Z,21.93
2023-08-13T19:50:07.390Z,22.16
2023-08-13T19:52:35.380Z,22.03
2023-08-13T19:55:04.957Z,21.86
2023-08-13T19:57:32.704Z,21.81
2023-08-13T20:00:03.040Z,21.97
2023-08-13T20:02:38.767Z,22.01
2023-08-13T20:05:07.321Z,21.61
2023-08-13T20:07:35.289Z,21.50
2023-08-13T20:10:08.506Z,20.97
2023-08-13T20:12:36.298Z,21.37
2023-08-13T20:15:05.278Z,21.39
2023-08-13T20:17:33.778Z,20.77
2023-08-13T20:20:01.682Z,20.93
2023-08-13T20:22:29.402Z,21.16
2023-08-13T20:24:59.095Z,20.87
2023-08-13T20:27:28.117Z,21.23
2023-08-13T20:29:56.888Z,21.39
2023-08-13T20:32:26.560Z,21.56
2023-08-13T20:34:54.313Z,21.55
2023-08-13T20:37:24.849Z,21.51
2023-08-13T20:39:52.496Z,21.57
2023-08-13T20:42:20.305Z,21.53
2023-08-13T20:44:49.415Z,21.02
2023-08-13T20:47:18.264Z,21.30
2023-08-13T20:49:46.044Z,21.46
2023-08-13T20:52:13.709Z,20.79
2023-08-13T20:54:41.427Z,20.70
2023-08-13T20:57:09.081Z,20.49
2023-08-13T20:59:36.720Z,20.68
2023-08-13T21:02:05.876Z,20.50
2023-08-13T21:04:33.558Z,21.17
2023-08-13T21:07:01.391Z,21.36
2023-08-13T21:09:29.883Z,21.44
2023-08-13T21:11:57.665Z,21.53
2023-08-13T21:14:25.460Z,21.53
2023-08-13T21:16:53.202Z,21.34
2023-08-13T21:19:22.401Z,21.59
2023-08-13T21:21:50.050Z,21.82
2023-08-13T21:24:17.896Z,21.84
2023-08-13T21:26:46.582Z,22.04
2023-08-13T21:29:14.276Z,21.95
2023-08-13T21:31:41.966Z,21.30
2023-08-13T21:34:09.649Z,21.66
2023-08-13T21:36:38.706Z,21.20
2023-08-13T21:39:07.847Z,21.52
2023-08-13T21:41:35.547Z,21.49
2023-08-13T21:44:03.162Z,20.78
2023-08-13T21:46:30.864Z,21.39
2023-08-13T21:48:58.591Z,21.92
2023-08-13T21:51:26.433Z,21.37
2023-08-13T21:53:55.461Z,21.53
2023-08-13T21:56:23.124Z,21.82
2023-08-13T21:58:50.752Z,21.63
2023-08-13T22:01:18.620Z,21.92
2023-08-13T22:03:46.559Z,21.98
2023-08-13T22:06:14.274Z,21.34
2023-08-13T22:08:41.930Z,21.61
2023-08-13T22:11:11.072Z,21.76
2023-08-13T22:13:38.745Z,21.71
2023-08-13T22:16:06.517Z,21.71
2023-08-13T22:18:34.191Z,21.70
2023-08-13T22:21:02.026Z,21.78
2023-08-13T22:23:29.873Z,21.13
2023-08-13T22:26:05.274Z,20.68
2023-08-13T22:28:44.848Z,21.06
2023-08-13T22:31:12.610Z,21.66
2023-08-13T22:33:40.265Z,21.54
2023-08-13T22:36:07.916Z,21.35
2023-08-13T22:38:35.604Z,21.30
2023-08-13T22:41:03.234Z,21.33
2023-08-13T22:43:30.957Z,21.08
2023-08-13T22:46:01.130Z,21.25
2023-08-13T22:48:28.849Z,21.38
2023-08-13T22:50:56.474Z,21.83
2023-08-13T22:53:24.253Z,21.59
2023-08-13T22:55:52.023Z,21.34
2023-08-13T22:58:19.676Z,21.18
2023-08-13T23:00:47.340Z,21.09
2023-08-13T23:03:16.779Z,21.24
2023-08-13T23:05:47.152Z,21.67
2023-08-13T23:08:17.928Z,21.51
2023-08-13T23:10:45.815Z,21.33
2023-08-13T23:13:16.221Z,20.80
2023-08-13T23:15:44.006Z,21.23
2023-08-13T23:18:12.169Z,20.39
2023-08-13T23:20:41.298Z,19.94
2023-08-13T23:23:09.005Z,20.03
2023-08-13T23:25:36.660Z,20.38
2023-08-13T23:28:04.566Z,20.71
2023-08-13T23:30:32.315Z,20.43
2023-08-13T23:33:01.234Z,20.74
2023-08-13T23:35:28.911Z,21.05
2023-08-13T23:37:59.172Z,20.87
2023-08-13T23:40:26.867Z,20.87
2023-08-13T23:42:54.692Z,20.76
2023-08-13T23:45:23.063Z,21.18
2023-08-13T23:47:50.887Z,20.50
2023-08-13T23:50:18.671Z,20.24
2023-08-13T23:52:46.368Z,20.83
2023-08-13T23:55:17.300Z,21.29
2023-08-13T23:57:45.210Z,20.68
